Time,TemperatureF,DewpointF,PressureIn,WindDirection,WindDirectionDegrees,WindSpeedMPH,WindSpeedGustMPH,Humidity,HourlyPrecipIn,Conditions,Clouds,dailyrainin,SoftwareType,DateUTC
2013-02-04 00:00:00,35.9,20.9,30.01,West,271,0.0,0.0,54,0.00,RA,,0.00,WeatherDisplay:10.37,2013-02-04 05:00:00,
2013-02-04 00:10:00,35.6,21.0,30.00,West,271,0.0,0.0,55,0.00,CLR,,0.00,WeatherDisplay:10.37,2013-02-04 05:10:00,
2013-02-04 00:20:00,35.3,21.2,30.00,West,271,0.0,0.0,56,0.00,CLR,,0.00,WeatherDisplay:10.37,2013-02-04 05:20:00,
2013-02-04 00:30:00,35.0,20.9,30.00,WNW,301,0.0,10.0,56,0.00,CLR,,0.00,WeatherDisplay:10.37,2013-02-04 05:30:00,
2013-02-04 00:40:00,35.0,20.9,30.01,NW,311,0.0,0.0,56,0.00,CLR,,0.00,WeatherDisplay:10.37,2013-02-04 05:40:00,
2013-02-04 00:50:00,34.9,20.8,30.01,NW,313,0.0,0.0,56,0.00,CLR,,0.00,WeatherDisplay:10.37,2013-02-04 05:50:00,
2013-02-04 01:00:00,34.7,20.6,30.01,NW,313,0.0,0.0,56,0.00,CLR,,0.00,WeatherDisplay:10.37,2013-02-04 06:00:00,
2013-02-04 01:10:00,34.5,20.4,30.01,NW,313,0.0,0.0,56,0.00,CLR,,0.00,WeatherDisplay:10.37,2013-02-04 06:10:00,
2013-02-04 01:20:00,34.2,20.2,30.00,NW,313,0.0,0.0,56,0.00,CLR,,0.00,WeatherDisplay:10.37,2013-02-04 06:20:00,
2013-02-04 01:30:00,33.9,20.2,30.00,NW,313,0.0,0.0,57,0.00,CLR,,0.00,WeatherDisplay:10.37,2013-02-04 06:30:00,
2013-02-04 01:40:00,33.7,20.5,30.01,NW,313,0.0,0.0,58,0.00,CLR,,0.00,WeatherDisplay:10.37,2013-02-04 06:40:00,
2013-02-04 01:50:00,33.5,20.3,30.01,NW,313,0.0,0.0,58,0.00,CLR,,0.00,WeatherDisplay:10.37,2013-02-04 06:50:00,
2013-02-04 02:00:00,33.2,20.4,30.01,NW,313,0.0,0.0,59,0.00,CLR,,0.00,WeatherDisplay:10.37,2013-02-04 07:00:00,
2013-02-04 02:10:00,32.8,20.4,30.01,NW,313,0.0,0.0,60,0.00,CLR,,0.00,WeatherDisplay:10.37,2013-02-04 07:10:00,
2013-02-04 02:20:00,32.5,20.1,30.02,NW,312,0.0,0.0,60,0.00,CLR,,0.00,WeatherDisplay:10.37,2013-02-04 07:20:00,
2013-02-04 02:30:00,32.2,20.2,30.02,NW,312,0.0,0.0,61,0.00,CLR,,0.00,WeatherDisplay:10.37,2013-02-04 07:30:00,
2013-02-04 02:40:00,32.1,20.2,30.02,NW,312,0.0,0.0,61,0.00,CLR,,0.00,WeatherDisplay:10.37,2013-02-04 07:40:00,
2013-02-04 02:50:00,32.2,20.2,30.03,NW,311,0.0,0.0,61,0.00,CLR,,0.00,WeatherDisplay:10.37,2013-02-04 07:50:00,
2013-02-04 03:00:00,32.1,19.8,30.03,NW,309,0.0,0.0,60,0.00,CLR,,0.00,WeatherDisplay:10.37,2013-02-04 08:00:00,
2013-02-04 03:10:00,31.9,19.6,30.03,NW,309,0.0,0.0,60,0.00,CLR,,0.00,WeatherDisplay:10.37,2013-02-04 08:10:00,
2013-02-04 03:20:00,31.8,19.5,30.03,NW,309,0.0,0.0,60,0.00,CLR,,0.00,WeatherDisplay:10.37,2013-02-04 08:20:00,
2013-02-04 03:30:00,31.4,19.5,30.03,NW,309,0.0,0.0,61,0.00,CLR,,0.00,WeatherDisplay:10.37,2013-02-04 08:30:00,
2013-02-04 03:40:00,31.2,20.1,30.03,NW,309,0.0,0.0,63,0.00,CLR,,0.00,WeatherDisplay:10.37,2013-02-04 08:40:00,
2013-02-04 03:50:00,30.9,20.1,30.04,NW,309,0.0,0.0,64,0.00,CLR,,0.00,WeatherDisplay:10.37,2013-02-04 08:50:00,
2013-02-04 04:00:00,30.7,20.3,30.04,NW,309,0.0,0.0,65,0.00,CLR,,0.00,WeatherDisplay:10.37,2013-02-04 09:00:00,
2013-02-04 04:10:00,30.4,20.0,30.03,NW,309,0.0,0.0,65,0.00,CLR,,0.00,WeatherDisplay:10.37,2013-02-04 09:10:00,
2013-02-04 04:20:00,30.4,20.4,30.04,NW,309,0.0,0.0,66,0.00,CLR,,0.00,WeatherDisplay:10.37,2013-02-04 09:20:00,
2013-02-04 04:30:00,30.3,19.9,30.04,NW,309,0.0,0.0,65,0.00,CLR,,0.00,WeatherDisplay:10.37,2013-02-04 09:30:00,
2013-02-04 04:40:00,30.3,19.6,30.04,NW,309,0.0,0.0,64,0.00,CLR,,0.00,WeatherDisplay:10.37,2013-02-04 09:40:00,
2013-02-04 04:50:00,30.3,19.2,30.05,NW,309,0.0,0.0,63,0.00,CLR,,0.00,WeatherDisplay:10.37,2013-02-04 09:50:00,
2013-02-04 05:00:00,30.4,19.3,30.05,NW,309,0.0,0.0,63,0.00,CLR,,0.00,WeatherDisplay:10.37,2013-02-04 10:00:00,
2013-02-04 05:10:00,30.4,18.9,30.05,NW,309,0.0,0.0,62,0.00,CLR,,0.00,WeatherDisplay:10.37,2013-02-04 10:10:00,
2013-02-04 05:20:00,30.4,18.9,30.05,NW,309,0.0,0.0,62,0.00,CLR,,0.00,WeatherDisplay:10.37,2013-02-04 10:20:00,
2013-02-04 05:30:00,30.3,18.8,30.05,NW,309,0.0,0.0,62,0.00,CLR,,0.00,WeatherDisplay:10.37,2013-02-04 10:30:00,
2013-02-04 05:40:00,30.2,18.4,30.06,NW,309,0.0,0.0,61,0.00,CLR,,0.00,WeatherDisplay:10.37,2013-02-04 10:40:00,
2013-02-04 05:50:00,30.0,18.5,30.07,NW,309,0.0,0.0,62,0.00,CLR,,0.00,WeatherDisplay:10.37,2013-02-04 10:50:00,
2013-02-04 06:00:00,30.1,18.3,30.07,NW,309,0.0,0.0,61,0.00,CLR,,0.00,WeatherDisplay:10.37,2013-02-04 11:00:00,
2013-02-04 06:10:00,30.4,17.4,30.08,NW,304,0.0,0.0,58,0.00,CLR,,0.00,WeatherDisplay:10.37,2013-02-04 11:10:00,
2013-02-04 06:20:00,30.7,16.8,30.08,West,280,0.0,0.0,56,0.00,CLR,,0.00,WeatherDisplay:10.37,2013-02-04 11:20:00,
2013-02-04 06:30:00,31.1,16.3,30.08,West,276,0.0,0.0,54,0.00,CLR,,0.00,WeatherDisplay:10.37,2013-02-04 11:30:00,
2013-02-04 06:40:00,31.3,16.1,30.08,WNW,291,0.0,0.0,53,0.00,CLR,,0.00,WeatherDisplay:10.37,2013-02-04 11:40:00,
2013-02-04 06:50:00,31.5,15.9,30.08,WNW,296,0.0,0.0,52,0.00,CLR,,0.00,WeatherDisplay:10.37,2013-02-04 11:50:00,
2013-02-04 07:00:00,31.6,16.0,30.08,WNW,297,0.0,0.0,52,0.00,CLR,,0.00,WeatherDisplay:10.37,2013-02-04 12:00:00,
2013-02-04 07:10:00,31.6,15.5,30.09,WNW,298,0.0,0.0,51,0.00,CLR,,0.00,WeatherDisplay:10.37,2013-02-04 12:10:00,
2013-02-04 07:20:00,31.6,15.5,30.10,WNW,298,0.0,0.0,51,0.00,CLR,,0.00,WeatherDisplay:10.37,2013-02-04 12:20:00,
2013-02-04 07:30:00,31.6,15.5,30.10,WNW,298,0.0,0.0,51,0.00,CLR,,0.00,WeatherDisplay:10.37,2013-02-04 12:30:00,
2013-02-04 07:40:00,31.8,15.7,30.10,WNW,298,0.0,0.0,51,0.00,CLR,,0.00,WeatherDisplay:10.37,2013-02-04 12:40:00,
2013-02-04 07:50:00,31.8,15.7,30.11,WNW,298,0.0,0.0,51,0.00,CLR,,0.00,WeatherDisplay:10.37,2013-02-04 12:50:00,
2013-02-04 08:00:00,31.8,16.2,30.11,WNW,302,0.0,0.0,52,0.00,CLR,,0.00,WeatherDisplay:10.37,2013-02-04 13:00:00,
2013-02-04 08:10:00,31.9,16.2,30.12,WNW,303,0.0,0.0,52,0.00,CLR,,0.00,WeatherDisplay:10.37,2013-02-04 13:10:00,
2013-02-04 08:20:00,32.1,16.9,30.13,NW,304,0.0,0.0,53,0.00,CLR,,0.00,WeatherDisplay:10.37,2013-02-04 13:20:00,
2013-02-04 08:30:00,32.2,16.5,30.13,NW,306,0.0,0.0,52,0.00,CLR,,0.00,WeatherDisplay:10.37,2013-02-04 13:30:00,
2013-02-04 08:40:00,32.5,16.8,30.13,NW,310,0.0,0.0,52,0.00,CLR,,0.00,WeatherDisplay:10.37,2013-02-04 13:40:00,
2013-02-04 08:50:00,32.9,16.7,30.13,NNW,334,0.0,0.0,51,0.00,CLR,,0.00,WeatherDisplay:10.37,2013-02-04 13:50:00,
2013-02-04 09:00:00,33.1,16.9,30.13,North,9,0.0,0.0,51,0.00,CLR,,0.00,WeatherDisplay:10.37,2013-02-04 14:00:00,
2013-02-04 09:10:00,33.2,16.5,30.13,North,8,0.0,0.0,50,0.00,CLR,,0.00,WeatherDisplay:10.37,2013-02-04 14:10:00,
2013-02-04 09:20:00,33.5,16.8,30.14,North,5,0.0,0.0,50,0.00,CLR,,0.00,WeatherDisplay:10.37,2013-02-04 14:20:00,
2013-02-04 09:30:00,34.0,16.8,30.14,North,2,0.0,0.0,49,0.00,CLR,,0.00,WeatherDisplay:10.37,2013-02-04 14:30:00,
2013-02-04 09:40:00,34.6,16.4,30.14,NNW,345,0.0,0.0,47,0.00,CLR,,0.00,WeatherDisplay:10.37,2013-02-04 14:40:00,
2013-02-04 09:50:00,35.2,16.0,30.16,NNW,343,0.0,0.0,45,0.00,CLR,,0.00,WeatherDisplay:10.37,2013-02-04 14:50:00,
2013-02-04 10:00:00,35.4,16.2,30.16,North,352,0.0,0.0,45,0.00,CLR,,0.00,WeatherDisplay:10.37,2013-02-04 15:00:00,
2013-02-04 10:10:00,35.9,16.6,30.14,North,351,0.0,0.0,45,0.00,CLR,,0.00,WeatherDisplay:10.37,2013-02-04 15:10:00,
2013-02-04 10:20:00,36.0,15.7,30.15,NNW,348,0.0,0.0,43,0.00,CLR,,0.00,WeatherDisplay:10.37,2013-02-04 15:20:00,
2013-02-04 10:30:00,35.9,15.5,30.15,NNW,348,0.0,0.0,43,0.00,CLR,,0.00,WeatherDisplay:10.37,2013-02-04 15:30:00,
2013-02-04 10:40:00,36.2,15.8,30.15,NNW,346,0.0,0.0,43,0.00,CLR,,0.00,WeatherDisplay:10.37,2013-02-04 15:40:00,
2013-02-04 10:50:00,36.9,15.9,30.15,NNW,343,0.0,0.0,42,0.00,CLR,,0.00,WeatherDisplay:10.37,2013-02-04 15:50:00,
2013-02-04 11:00:00,37.9,16.2,30.15,North,349,0.0,0.0,41,0.00,CLR,,0.00,WeatherDisplay:10.37,2013-02-04 16:00:00,
2013-02-04 11:10:00,38.6,16.3,30.14,North,352,0.0,0.0,40,0.00,CLR,,0.00,WeatherDisplay:10.37,2013-02-04 16:10:00,
2013-02-04 11:20:00,39.6,16.7,30.15,North,349,0.0,0.0,39,0.00,CLR,,0.00,WeatherDisplay:10.37,2013-02-04 16:20:00,
2013-02-04 11:30:00,40.4,16.1,30.15,NNW,348,0.0,0.0,37,0.00,CLR,,0.00,WeatherDisplay:10.37,2013-02-04 16:30:00,
2013-02-04 11:40:00,41.3,16.4,30.14,NW,325,0.0,0.0,36,0.00,CLR,,0.00,WeatherDisplay:10.37,2013-02-04 16:40:00,
2013-02-04 11:50:00,41.6,15.9,30.14,WNW,303,0.0,0.0,35,0.00,CLR,,0.00,WeatherDisplay:10.37,2013-02-04 16:50:00,
2013-02-04 12:00:00,41.6,17.2,30.14,WSW,257,0.0,0.0,37,0.00,CLR,,0.00,WeatherDisplay:10.37,2013-02-04 17:00:00,
2013-02-04 12:10:00,42.2,16.5,30.12,SW,223,0.0,0.0,35,0.00,CLR,,0.00,WeatherDisplay:10.37,2013-02-04 17:10:00,
2013-02-04 12:20:00,41.9,16.2,30.11,SSW,212,0.0,0.0,35,0.00,CLR,,0.00,WeatherDisplay:10.37,2013-02-04 17:20:00,
2013-02-04 12:30:00,42.8,16.3,30.11,SW,215,0.0,0.0,34,0.00,CLR,,0.00,WeatherDisplay:10.37,2013-02-04 17:30:00,
2013-02-04 12:40:00,43.5,16.3,30.09,SSW,210,0.0,1.0,33,0.00,CLR,,0.00,WeatherDisplay:10.37,2013-02-04 17:40:00,
2013-02-04 12:50:00,42.5,16.1,30.08,South,171,0.0,1.0,34,0.00,CLR,,0.00,WeatherDisplay:10.37,2013-02-04 17:50:00,
2013-02-04 13:00:00,43.2,16.0,30.08,SSE,163,0.0,1.0,33,0.00,CLR,,0.00,WeatherDisplay:10.37,2013-02-04 18:00:00,
2013-02-04 13:10:00,43.4,16.9,30.07,SSE,155,0.0,0.0,34,0.00,CLR,,0.00,WeatherDisplay:10.37,2013-02-04 18:10:00,
2013-02-04 13:20:00,44.1,17.5,30.08,South,180,0.0,0.0,34,0.00,CLR,,0.00,WeatherDisplay:10.37,2013-02-04 18:20:00,
2013-02-04 13:30:00,45.1,17.0,30.08,SW,232,0.0,1.0,32,0.00,CLR,,0.00,WeatherDisplay:10.37,2013-02-04 18:30:00,
2013-02-04 13:40:00,45.4,17.2,30.08,WSW,246,0.0,1.0,32,0.00,CLR,,0.00,WeatherDisplay:10.37,2013-02-04 18:40:00,
2013-02-04 13:50:00,46.4,18.1,30.06,SW,216,1.0,4.0,32,0.00,CLR,,0.00,WeatherDisplay:10.37,2013-02-04 18:50:00,
2013-02-04 14:00:00,47.2,17.3,30.06,SW,216,1.0,9.0,30,0.00,CLR,,0.00,WeatherDisplay:10.37,2013-02-04 19:00:00,
2013-02-04 14:10:00,46.9,17.8,30.06,SW,217,0.0,2.0,31,0.00,CLR,,0.00,WeatherDisplay:10.37,2013-02-04 19:10:00,
2013-02-04 14:20:00,47.5,18.3,30.05,SSW,211,0.0,3.0,31,0.00,CLR,,0.00,WeatherDisplay:10.37,2013-02-04 19:20:00,
2013-02-04 14:30:00,47.4,19.0,30.05,SSW,193,0.0,6.0,32,0.00,CLR,,0.00,WeatherDisplay:10.37,2013-02-04 19:30:00,
2013-02-04 14:40:00,47.6,18.4,30.04,SSW,207,1.0,3.0,31,0.00,CLR,,0.00,WeatherDisplay:10.37,2013-02-04 19:40:00,
2013-02-04 14:50:00,48.3,19.0,30.04,SSW,197,0.0,3.0,31,0.00,CLR,,0.00,WeatherDisplay:10.37,2013-02-04 19:50:00,
2013-02-04 15:00:00,48.1,18.9,30.04,SW,223,2.0,9.0,31,0.00,CLR,,0.00,WeatherDisplay:10.37,2013-02-04 20:00:00,
2013-02-04 15:10:00,48.5,19.2,30.04,SW,228,1.0,5.0,31,0.00,CLR,,0.00,WeatherDisplay:10.37,2013-02-04 20:10:00,
2013-02-04 15:20:00,48.2,19.0,30.03,SW,227,1.0,5.0,31,0.00,CLR,,0.00,WeatherDisplay:10.37,2013-02-04 20:20:00,
2013-02-04 15:30:00,48.5,19.2,30.03,SW,222,2.0,10.0,31,0.00,CLR,,0.00,WeatherDisplay:10.37,2013-02-04 20:30:00,
2013-02-04 15:40:00,48.6,19.3,30.03,SW,215,1.0,10.0,31,0.00,CLR,,0.00,WeatherDisplay:10.37,2013-02-04 20:40:00,
2013-02-04 15:50:00,48.2,19.7,30.03,SSW,209,5.0,10.0,32,0.00,CLR,,0.00,WeatherDisplay:10.37,2013-02-04 20:50:00,
2013-02-04 16:00:00,48.1,19.6,30.03,SSW,212,2.0,9.0,32,0.00,CLR,,0.00,WeatherDisplay:10.37,2013-02-04 21:00:00,
2013-02-04 16:10:00,48.0,19.5,30.02,SSW,210,1.0,10.0,32,0.00,CLR,,0.00,WeatherDisplay:10.37,2013-02-04 21:10:00,
2013-02-04 16:20:00,48.0,20.2,30.01,SSW,201,1.0,5.0,33,0.00,CLR,,0.00,WeatherDisplay:10.37,2013-02-04 21:20:00,
2013-02-04 16:30:00,48.3,21.2,30.01,SSW,211,0.0,9.0,34,0.00,CLR,,0.00,WeatherDisplay:10.37,2013-02-04 21:30:00,
2013-02-04 16:40:00,48.2,20.4,30.01,SSW,212,3.0,9.0,33,0.00,CLR,,0.00,WeatherDisplay:10.37,2013-02-04 21:40:00,
2013-02-04 16:50:00,48.0,20.9,30.01,SSW,208,3.0,12.0,34,0.00,CLR,,0.00,WeatherDisplay:10.37,2013-02-04 21:50:00,
2013-02-04 17:00:00,47.9,21.5,30.01,SSW,206,1.0,10.0,35,0.00,CLR,,0.00,WeatherDisplay:10.37,2013-02-04 22:00:00,
2013-02-04 17:10:00,47.6,20.6,30.01,SSW,211,3.0,12.0,34,0.00,CLR,,0.00,WeatherDisplay:10.37,2013-02-04 22:10:00,
2013-02-04 17:20:00,47.3,21.0,30.01,SW,216,1.0,9.0,35,0.00,CLR,,0.00,WeatherDisplay:10.37,2013-02-04 22:20:00,
2013-02-04 17:30:00,47.0,21.4,30.01,SW,219,1.0,7.0,36,0.00,CLR,,0.00,WeatherDisplay:10.37,2013-02-04 22:30:00,
2013-02-04 17:40:00,46.8,21.2,30.01,SSW,210,3.0,10.0,36,0.00,CLR,,0.00,WeatherDisplay:10.37,2013-02-04 22:40:00,
2013-02-04 17:50:00,46.5,21.6,30.01,SW,215,2.0,9.0,37,0.00,CLR,,0.00,WeatherDisplay:10.37,2013-02-04 22:50:00,
2013-02-04 18:00:00,46.3,22.0,30.01,SSW,210,1.0,9.0,38,0.00,CLR,,0.00,WeatherDisplay:10.37,2013-02-04 23:00:00,
2013-02-04 18:10:00,46.1,21.9,30.01,SSW,212,0.0,8.0,38,0.00,CLR,,0.00,WeatherDisplay:10.37,2013-02-04 23:10:00,
2013-02-04 18:20:00,46.0,22.4,30.01,SSW,205,0.0,2.0,39,0.00,CLR,,0.00,WeatherDisplay:10.37,2013-02-04 23:20:00,
2013-02-04 18:30:00,45.7,23.3,30.01,SSW,206,0.0,9.0,41,0.00,CLR,,0.00,WeatherDisplay:10.37,2013-02-04 23:30:00,
2013-02-04 18:40:00,45.2,23.4,30.01,SSW,194,1.0,7.0,42,0.00,CLR,,0.00,WeatherDisplay:10.37,2013-02-04 23:40:00,
2013-02-04 18:50:00,45.1,23.9,30.01,SSW,204,1.0,7.0,43,0.00,CLR,,0.00,WeatherDisplay:10.37,2013-02-04 23:50:00,
2013-02-04 19:00:00,44.8,23.6,30.01,SSW,206,1.0,7.0,43,0.00,CLR,,0.00,WeatherDisplay:10.37,2013-02-05 00:00:00,
2013-02-04 19:10:00,44.5,23.9,30.02,SSW,210,1.0,3.0,44,0.00,CLR,,0.00,WeatherDisplay:10.37,2013-02-05 00:10:00,
2013-02-04 19:20:00,44.2,24.2,30.03,SSW,204,0.0,3.0,45,0.00,CLR,,0.00,WeatherDisplay:10.37,2013-02-05 00:20:00,
2013-02-04 19:30:00,44.0,24.0,30.03,SSW,209,0.0,3.0,45,0.00,CLR,,0.00,WeatherDisplay:10.37,2013-02-05 00:30:00,
2013-02-04 19:40:00,43.8,24.3,30.02,SSW,209,0.0,5.0,46,0.00,CLR,,0.00,WeatherDisplay:10.37,2013-02-05 00:40:00,
2013-02-04 19:50:00,43.5,24.1,30.01,SW,215,0.0,4.0,46,0.00,CLR,,0.00,WeatherDisplay:10.37,2013-02-05 00:50:00,
2013-02-04 20:00:00,43.3,24.4,30.01,SSW,208,1.0,6.0,47,0.00,CLR,,0.00,WeatherDisplay:10.37,2013-02-05 01:00:00,
2013-02-04 20:10:00,43.2,24.3,30.02,SSW,207,1.0,7.0,47,0.00,CLR,,0.00,WeatherDisplay:10.37,2013-02-05 01:10:00,
2013-02-04 20:20:00,43.1,24.7,30.01,SSW,203,0.0,10.0,48,0.00,CLR,,0.00,WeatherDisplay:10.37,2013-02-05 01:20:00,
2013-02-04 20:30:00,42.9,24.5,30.01,SSW,211,2.0,12.0,48,0.00,CLR,,0.00,WeatherDisplay:10.37,2013-02-05 01:30:00,
2013-02-04 20:40:00,42.9,25.0,30.01,SSW,204,5.0,10.0,49,0.00,CLR,,0.00,WeatherDisplay:10.37,2013-02-05 01:40:00,
2013-02-04 20:50:00,42.8,24.9,30.01,SSW,212,1.0,7.0,49,0.00,CLR,,0.00,WeatherDisplay:10.37,2013-02-05 01:50:00,
2013-02-04 21:00:00,42.6,25.2,30.01,SSW,208,5.0,12.0,50,0.00,CLR,,0.00,WeatherDisplay:10.37,2013-02-05 02:00:00,
2013-02-04 21:10:00,42.5,25.1,30.01,SSW,211,0.0,14.0,50,0.00,CLR,,0.00,WeatherDisplay:10.37,2013-02-05 02:10:00,
2013-02-04 21:20:00,42.3,25.4,30.01,SSW,205,3.0,15.0,51,0.00,CLR,,0.00,WeatherDisplay:10.37,2013-02-05 02:20:00,
2013-02-04 21:30:00,42.2,25.3,30.01,SSW,212,1.0,13.0,51,0.00,CLR,,0.00,WeatherDisplay:10.37,2013-02-05 02:30:00,
2013-02-04 21:40:00,41.9,25.5,30.01,SSW,206,3.0,15.0,52,0.00,CLR,,0.00,WeatherDisplay:10.37,2013-02-05 02:40:00,
2013-02-04 21:50:00,41.8,25.4,30.01,SSW,210,1.0,14.0,52,0.00,CLR,,0.00,WeatherDisplay:10.37,2013-02-05 02:50:00,
2013-02-04 22:00:00,41.5,25.2,30.01,SSW,211,1.0,12.0,52,0.00,CLR,,0.00,WeatherDisplay:10.37,2013-02-05 03:00:00,
2013-02-04 22:10:00,41.3,25.4,30.01,SW,215,0.0,13.0,53,0.00,CLR,,0.00,WeatherDisplay:10.37,2013-02-05 03:10:00,
2013-02-04 22:20:00,41.1,25.3,30.01,SW,218,0.0,5.0,53,0.00,CLR,,0.00,WeatherDisplay:10.37,2013-02-05 03:20:00,
2013-02-04 22:30:00,40.8,25.4,30.01,SW,219,0.0,5.0,54,0.00,CLR,,0.00,WeatherDisplay:10.37,2013-02-05 03:30:00,
2013-02-04 22:40:00,40.6,25.2,30.01,SSW,211,0.0,7.0,54,0.00,CLR,,0.00,WeatherDisplay:10.37,2013-02-05 03:40:00,
2013-02-04 22:50:00,40.4,25.1,30.01,SSW,209,2.0,10.0,54,0.00,CLR,,0.00,WeatherDisplay:10.37,2013-02-05 03:50:00,
2013-02-04 23:00:00,40.3,25.4,30.01,SSW,208,0.0,6.0,55,0.00,CLR,,0.00,WeatherDisplay:10.37,2013-02-05 04:00:00,
2013-02-04 23:10:00,40.2,25.3,30.00,SSW,209,0.0,3.0,55,0.00,CLR,,0.00,WeatherDisplay:10.37,2013-02-05 04:10:00,
2013-02-04 23:20:00,40.1,25.2,30.00,SSW,213,0.0,1.0,55,0.00,CLR,,0.00,WeatherDisplay:10.37,2013-02-05 04:20:00,
2013-02-04 23:30:00,39.9,25.0,30.00,SW,218,0.0,2.0,55,0.00,CLR,,0.00,WeatherDisplay:10.37,2013-02-05 04:30:00,
2013-02-04 23:40:00,39.9,25.0,30.00,SW,221,0.0,1.0,55,0.00,CLR,,0.00,WeatherDisplay:10.37,2013-02-05 04:40:00,
2013-02-04 23:50:00,39.8,24.9,30.00,SW,217,0.0,3.0,55,0.00,CLR,,0.00,WeatherDisplay:10.37,2013-02-05 04:50:00,